createdAt,value
2018-06-12T00:01:18.660Z,98.00
2018-06-12T00:03:48.900Z,98.00
2018-06-12T00:06:19.668Z,98.10
2018-06-12T00:08:49.870Z,98.00
2018-06-12T00:11:20.036Z,97.90
2018-06-12T00:13:50.152Z,97.90
2018-06-12T00:16:20.571Z,97.80
2018-06-12T00:18:50.677Z,97.80
2018-06-12T00:21:21.019Z,97.80
2018-06-12T00:23:51.199Z,97.80
2018-06-12T00:26:21.780Z,97.70
2018-06-12T00:28:51.898Z,97.70
2018-06-12T00:33:51.941Z,97.80
2018-06-12T00:36:21.916Z,97.90
2018-06-12T00:38:51.960Z,98.00
2018-06-12T00:41:21.965Z,98.20
2018-06-12T00:43:52.274Z,98.30
2018-06-12T00:46:22.243Z,98.60
2018-06-12T00:48:52.671Z,98.70
2018-06-12T00:51:22.474Z,98.80
2018-06-12T00:53:52.692Z,98.80
2018-06-12T00:59:03.300Z,98.90
2018-06-12T01:01:34.051Z,99.00
2018-06-12T01:04:04.559Z,99.10
2018-06-12T01:06:34.761Z,99.20
2018-06-12T01:09:06.131Z,99.40
2018-06-12T01:11:36.151Z,99.60
2018-06-12T01:14:06.619Z,99.80
2018-06-12T01:16:36.928Z,99.80
2018-06-12T01:19:07.049Z,99.90
2018-06-12T01:21:37.451Z,99.90
2018-06-12T01:24:07.761Z,99.90
2018-06-12T01:26:37.552Z,99.90
2018-06-12T01:31:37.394Z,99.90
2018-06-12T01:34:07.979Z,99.90
2018-06-12T01:36:39.100Z,99.90
2018-06-12T01:39:09.840Z,99.90
2018-06-12T01:41:40.101Z,99.90
2018-06-12T01:44:10.521Z,99.90
2018-06-12T01:46:40.117Z,99.90
2018-06-12T01:49:09.848Z,99.90
2018-06-12T01:51:40.441Z,99.90
2018-06-12T01:54:10.641Z,99.90
2018-06-12T01:56:40.820Z,99.90
2018-06-12T01:59:11.311Z,99.90
2018-06-12T02:01:41.421Z,99.90
2018-06-12T02:04:12.026Z,99.90
2018-06-12T02:06:42.123Z,99.90
2018-06-12T02:09:12.500Z,99.90
2018-06-12T02:11:43.672Z,99.90
2018-06-12T02:14:13.860Z,99.90
2018-06-12T02:16:44.150Z,99.90
2018-06-12T02:19:14.165Z,99.90
2018-06-12T02:21:44.601Z,99.90
2018-06-12T02:24:15.332Z,99.90
2018-06-12T02:26:46.001Z,99.90
2018-06-12T02:29:16.372Z,99.90
2018-06-12T02:31:46.572Z,99.90
2018-06-12T02:34:16.931Z,99.90
2018-06-12T02:36:47.220Z,99.90
2018-06-12T02:39:17.632Z,99.90
2018-06-12T02:41:48.229Z,99.90
2018-06-12T02:44:18.423Z,99.90
2018-06-12T02:46:47.997Z,99.90
2018-06-12T02:49:18.721Z,99.90
2018-06-12T02:51:49.151Z,99.90
2018-06-12T02:54:19.561Z,99.90
2018-06-12T02:56:49.761Z,99.90
2018-06-12T02:59:19.739Z,99.90
2018-06-12T03:01:49.882Z,99.90
2018-06-12T03:04:20.114Z,99.90
2018-06-12T03:06:50.322Z,99.90
2018-06-12T03:09:20.711Z,99.90
2018-06-12T03:11:51.031Z,99.90
2018-06-12T03:14:21.412Z,99.90
2018-06-12T03:16:51.731Z,99.90
2018-06-12T03:19:22.100Z,99.90
2018-06-12T03:24:22.144Z,99.90
2018-06-12T03:26:52.896Z,99.90
2018-06-12T03:29:23.546Z,99.90
2018-06-12T03:31:53.862Z,99.90
2018-06-12T03:34:24.056Z,99.90
2018-06-12T03:36:54.632Z,99.80
2018-06-12T03:39:24.874Z,99.70
2018-06-12T03:41:55.972Z,99.60
2018-06-12T03:44:26.612Z,99.30
2018-06-12T03:46:56.781Z,98.80
2018-06-12T03:49:27.138Z,98.30
2018-06-12T03:51:57.371Z,97.80
2018-06-12T03:54:28.110Z,97.60
2018-06-12T03:56:58.331Z,97.20
2018-06-12T03:59:28.720Z,97.00
2018-06-12T04:01:59.301Z,96.60
2018-06-12T04:04:30.041Z,96.10
2018-06-12T04:07:00.521Z,95.60
2018-06-12T04:09:30.840Z,95.40
2018-06-12T04:12:00.921Z,95.60
2018-06-12T04:14:31.160Z,96.00
2018-06-12T04:17:01.322Z,96.40
2018-06-12T04:19:31.531Z,96.50
2018-06-12T04:22:02.241Z,96.50
2018-06-12T04:27:02.252Z,96.40
2018-06-12T04:29:32.331Z,96.50
2018-06-12T04:32:02.430Z,96.30
2018-06-12T04:34:33.271Z,96.20
2018-06-12T04:37:03.391Z,96.20
2018-06-12T04:39:33.662Z,96.10
2018-06-12T04:42:03.951Z,96.40
2018-06-12T04:44:34.341Z,96.40
2018-06-12T04:47:05.201Z,96.50
2018-06-12T04:49:35.358Z,96.60
2018-06-12T04:52:05.820Z,96.70
2018-06-12T04:54:36.849Z,96.80
2018-06-12T04:57:07.275Z,96.60
2018-06-12T04:59:37.374Z,96.60
2018-06-12T05:02:07.532Z,96.60
2018-06-12T05:04:37.749Z,96.80
2018-06-12T05:07:07.912Z,96.60
2018-06-12T05:09:37.934Z,96.50
2018-06-12T05:12:07.999Z,96.00
2018-06-12T05:14:38.331Z,95.00
2018-06-12T05:17:08.634Z,93.90
2018-06-12T05:19:38.828Z,93.00
2018-06-12T05:22:09.040Z,92.40
2018-06-12T05:24:39.120Z,92.50
2018-06-12T05:27:09.421Z,93.00
2018-06-12T05:32:08.722Z,94.00
2018-06-12T05:34:38.664Z,94.40
2018-06-12T05:37:09.120Z,94.80
2018-06-12T05:39:39.220Z,94.90
2018-06-12T05:42:09.752Z,95.00
2018-06-12T05:44:40.091Z,95.20
2018-06-12T05:47:10.331Z,95.20
2018-06-12T05:49:40.681Z,95.40
2018-06-12T05:52:10.671Z,95.40
2018-06-12T05:54:40.762Z,95.30
2018-06-12T05:57:11.119Z,95.10
2018-06-12T05:59:41.292Z,95.10
2018-06-12T06:02:11.480Z,95.00
2018-06-12T06:04:41.575Z,94.70
2018-06-12T06:07:11.773Z,94.60
2018-06-12T06:09:41.912Z,93.70
2018-06-12T06:12:12.061Z,93.00
2018-06-12T06:14:42.171Z,91.60
2018-06-12T06:17:12.321Z,91.50
2018-06-12T06:19:43.412Z,92.30
2018-06-12T06:22:13.923Z,91.80
2018-06-12T06:24:44.200Z,92.10
2018-06-12T06:27:14.561Z,92.00
2018-06-12T06:29:44.759Z,92.20
2018-06-12T06:32:14.950Z,92.70
2018-06-12T06:34:45.093Z,92.60
2018-06-12T06:37:15.392Z,92.80
2018-06-12T06:39:45.820Z,92.80
2018-06-12T06:42:15.989Z,93.50
2018-06-12T06:44:46.152Z,93.90
2018-06-12T06:47:16.550Z,93.60
2018-06-12T06:49:46.595Z,93.50
2018-06-12T06:52:16.840Z,93.70
2018-06-12T06:54:46.942Z,93.30
2018-06-12T06:57:17.181Z,93.80
2018-06-12T06:59:48.120Z,93.00
2018-06-12T07:02:18.440Z,92.80
2018-06-12T07:04:49.380Z,92.90
2018-06-12T07:07:19.939Z,92.60
2018-06-12T07:09:50.160Z,92.10
2018-06-12T07:12:20.018Z,91.90
2018-06-12T07:14:50.388Z,92.10
2018-06-12T07:17:20.890Z,92.20
2018-06-12T07:19:51.553Z,92.00
2018-06-12T07:22:21.690Z,91.90
2018-06-12T07:24:51.820Z,91.30
2018-06-12T07:27:22.059Z,91.60
2018-06-12T07:29:52.204Z,91.00
2018-06-12T07:32:22.655Z,90.90
2018-06-12T07:34:53.311Z,91.20
2018-06-12T07:37:24.271Z,91.60
2018-06-12T07:39:56.067Z,90.70
2018-06-12T07:42:26.422Z,91.10
2018-06-12T07:44:57.901Z,90.60
2018-06-12T07:47:27.650Z,90.70
2018-06-12T07:49:58.100Z,90.50
2018-06-12T07:52:27.781Z,88.80
2018-06-12T07:54:57.648Z,88.80
2018-06-12T07:57:28.531Z,89.60
2018-06-12T07:59:58.957Z,89.30
2018-06-12T08:02:29.680Z,89.00
2018-06-12T08:05:00.046Z,87.10
2018-06-12T08:07:30.334Z,88.70
2018-06-12T08:10:00.339Z,86.40
2018-06-12T08:12:30.732Z,88.40
2018-06-12T08:15:00.713Z,85.30
2018-06-12T08:17:31.254Z,85.00
2018-06-12T08:20:01.620Z,85.20
2018-06-12T08:22:32.273Z,82.00
2018-06-12T08:25:02.564Z,82.00
2018-06-12T08:27:32.791Z,83.00
2018-06-12T08:30:02.889Z,82.80
2018-06-12T08:32:33.433Z,80.40
2018-06-12T08:35:03.041Z,80.10
2018-06-12T08:37:33.173Z,79.40
2018-06-12T08:40:03.666Z,80.30
2018-06-12T08:42:34.082Z,80.90
2018-06-12T08:45:04.641Z,80.70
2018-06-12T08:47:35.273Z,82.00
2018-06-12T08:50:05.352Z,82.00
2018-06-12T08:52:35.633Z,82.00
2018-06-12T08:55:06.102Z,81.80
2018-06-12T08:57:36.333Z,81.40
2018-06-12T09:00:06.662Z,81.10
2018-06-12T09:02:37.157Z,83.30
2018-06-12T09:05:07.501Z,81.00
2018-06-12T09:07:37.632Z,80.80
2018-06-12T09:10:07.766Z,80.30
2018-06-12T09:12:38.174Z,80.90
2018-06-12T09:15:08.344Z,79.70
2018-06-12T09:17:39.183Z,81.00
2018-06-12T09:22:39.432Z,75.60
2018-06-12T09:27:49.520Z,75.00
2018-06-12T09:30:20.132Z,75.10
2018-06-12T09:32:50.412Z,78.30
2018-06-12T09:35:20.701Z,78.10
2018-06-12T09:37:51.470Z,78.10
2018-06-12T09:40:21.621Z,79.50
2018-06-12T09:42:52.493Z,76.80
2018-06-12T09:45:22.732Z,75.30
2018-06-12T09:47:53.236Z,74.20
2018-06-12T09:50:23.569Z,79.40
2018-06-12T09:52:54.261Z,77.30
2018-06-12T09:55:25.272Z,74.70
2018-06-12T09:57:55.352Z,75.00
2018-06-12T10:00:30.593Z,75.00
2018-06-12T10:03:00.761Z,76.90
2018-06-12T10:05:31.192Z,77.50
2018-06-12T10:08:02.493Z,74.10
2018-06-12T10:10:33.012Z,75.80
2018-06-12T10:13:03.212Z,75.70
2018-06-12T10:15:33.852Z,74.40
2018-06-12T10:18:04.572Z,72.80
2018-06-12T10:23:04.623Z,73.20
2018-06-12T10:25:34.870Z,73.90
2018-06-12T10:28:05.182Z,73.10
2018-06-12T10:30:35.391Z,73.50
2018-06-12T10:33:05.861Z,75.70
2018-06-12T10:35:36.092Z,70.20
2018-06-12T10:38:06.534Z,71.50
2018-06-12T10:40:36.990Z,71.40
2018-06-12T10:43:08.241Z,73.10
2018-06-12T10:45:38.623Z,71.40
2018-06-12T10:48:09.020Z,72.00
2018-06-12T10:50:39.335Z,73.10
2018-06-12T10:53:09.171Z,71.20
2018-06-12T10:55:39.751Z,69.90
2018-06-12T10:58:09.431Z,68.30
2018-06-12T11:00:40.101Z,70.00
2018-06-12T11:03:10.200Z,68.60
2018-06-12T11:05:40.532Z,71.10
2018-06-12T11:08:10.841Z,71.50
2018-06-12T11:10:41.091Z,72.50
2018-06-12T11:13:11.691Z,72.80
2018-06-12T11:15:41.961Z,74.20
2018-06-12T11:18:12.082Z,71.50
2018-06-12T11:20:42.682Z,72.50
2018-06-12T11:25:42.763Z,73.80
2018-06-12T11:28:13.341Z,72.10
2018-06-12T11:30:43.821Z,70.80
2018-06-12T11:33:14.061Z,71.60
2018-06-12T11:35:44.502Z,69.40
2018-06-12T11:38:15.151Z,68.80
2018-06-12T11:40:45.500Z,70.40
2018-06-12T11:43:15.770Z,66.30
2018-06-12T11:45:46.071Z,68.80
2018-06-12T11:48:16.201Z,66.90
2018-06-12T11:50:46.670Z,65.40
2018-06-12T11:53:18.581Z,63.00
2018-06-12T11:55:48.902Z,64.90
2018-06-12T11:58:18.738Z,65.10
2018-06-12T12:00:49.171Z,64.90
2018-06-12T12:03:19.561Z,62.70
2018-06-12T12:05:50.032Z,63.40
2018-06-12T12:08:20.431Z,62.60
2018-06-12T12:10:50.630Z,62.30
2018-06-12T12:13:20.910Z,65.80
2018-06-12T12:15:51.089Z,64.00
2018-06-12T12:18:21.020Z,63.00
2018-06-12T12:20:51.731Z,61.90
2018-06-12T12:23:21.744Z,61.30
2018-06-12T12:25:52.011Z,60.70
2018-06-12T12:28:22.230Z,61.10
2018-06-12T12:30:53.020Z,60.40
2018-06-12T12:33:23.460Z,62.90
2018-06-12T12:35:53.896Z,61.90
2018-06-12T12:38:24.049Z,61.70
2018-06-12T12:40:54.213Z,61.50
2018-06-12T12:43:24.537Z,58.00
2018-06-12T12:45:54.809Z,59.30
2018-06-12T12:48:25.202Z,61.50
2018-06-12T12:50:55.500Z,59.60
2018-06-12T12:53:26.140Z,57.40
2018-06-12T12:55:56.542Z,59.50
2018-06-12T12:58:26.860Z,58.40
2018-06-12T13:00:57.292Z,58.30
2018-06-12T13:03:27.941Z,57.80
2018-06-12T13:05:58.281Z,55.90
2018-06-12T13:08:28.690Z,56.20
2018-06-12T13:10:58.970Z,55.50
2018-06-12T13:13:29.559Z,55.90
2018-06-12T13:15:59.961Z,57.40
2018-06-12T13:18:30.521Z,58.50
2018-06-12T13:21:00.750Z,56.90
2018-06-12T13:23:31.101Z,57.20
2018-06-12T13:26:01.463Z,57.20
2018-06-12T13:28:32.850Z,57.10
2018-06-12T13:31:03.061Z,56.70
2018-06-12T13:33:33.514Z,58.00
2018-06-12T13:36:04.111Z,55.70
2018-06-12T13:38:34.471Z,55.70
2018-06-12T13:41:04.974Z,53.90
2018-06-12T13:43:35.541Z,54.20
2018-06-12T13:46:06.342Z,55.80
2018-06-12T13:48:36.782Z,56.90
2018-06-12T13:51:06.992Z,56.80
2018-06-12T13:53:37.254Z,56.90
2018-06-12T13:56:07.741Z,57.50
2018-06-12T13:58:38.621Z,59.00
2018-06-12T14:01:09.221Z,57.10
2018-06-12T14:03:39.511Z,57.80
2018-06-12T14:06:09.860Z,57.60
2018-06-12T14:08:39.902Z,58.20
2018-06-12T14:11:10.172Z,58.40
2018-06-12T14:13:41.015Z,59.50
2018-06-12T14:16:11.442Z,58.00
2018-06-12T14:18:41.818Z,58.70
2018-06-12T14:21:12.251Z,59.70
2018-06-12T14:23:42.446Z,59.70
2018-06-12T14:26:12.571Z,60.00
2018-06-12T14:28:43.170Z,58.00
2018-06-12T14:31:13.100Z,59.10
2018-06-12T14:33:42.930Z,59.90
2018-06-12T14:36:13.251Z,60.80
2018-06-12T14:38:43.713Z,60.70
2018-06-12T14:41:14.522Z,60.80
2018-06-12T14:43:44.281Z,62.10
2018-06-12T14:46:14.349Z,61.40
2018-06-12T14:48:44.655Z,62.60
2018-06-12T14:51:14.700Z,67.00
2018-06-12T14:53:45.511Z,67.90
2018-06-12T14:56:16.740Z,72.70
2018-06-12T14:58:47.322Z,73.70
2018-06-12T15:01:19.359Z,76.20
2018-06-12T15:03:50.618Z,76.60
2018-06-12T15:06:21.571Z,77.00
2018-06-12T15:08:51.676Z,79.20
2018-06-12T15:11:21.650Z,79.80
2018-06-12T15:13:51.587Z,81.20
2018-06-12T15:16:21.913Z,81.50
2018-06-12T15:18:52.102Z,83.30
2018-06-12T15:21:22.001Z,85.60
2018-06-12T15:23:52.360Z,87.80
2018-06-12T15:26:22.499Z,90.40
2018-06-12T15:28:54.701Z,92.00
2018-06-12T15:31:25.661Z,93.30
2018-06-12T15:33:58.434Z,94.00
2018-06-12T15:36:37.199Z,95.40
2018-06-12T15:39:09.126Z,96.30
2018-06-12T15:41:39.375Z,96.70
2018-06-12T15:44:10.358Z,97.40
2018-06-12T15:46:41.539Z,98.10
2018-06-12T15:49:12.221Z,98.20
2018-06-12T15:51:43.100Z,98.60
2018-06-12T15:54:13.251Z,99.00
2018-06-12T15:56:43.640Z,99.30
2018-06-12T15:59:14.430Z,99.90
2018-06-12T16:01:44.853Z,99.90
2018-06-12T16:04:15.091Z,99.90
2018-06-12T16:06:45.025Z,99.90
2018-06-12T16:09:15.301Z,99.90
2018-06-12T16:11:45.690Z,99.90
2018-06-12T16:14:17.090Z,99.90
2018-06-12T16:16:47.192Z,99.90
2018-06-12T16:19:17.752Z,99.90
2018-06-12T16:21:48.051Z,99.90
2018-06-12T16:24:18.460Z,99.90
2018-06-12T16:26:49.202Z,99.90
2018-06-12T16:29:19.491Z,99.90
2018-06-12T16:31:49.770Z,99.90
2018-06-12T16:34:20.143Z,99.90
2018-06-12T16:36:50.583Z,99.90
2018-06-12T16:39:21.131Z,99.90
2018-06-12T16:41:51.412Z,99.90
2018-06-12T16:44:22.281Z,99.70
2018-06-12T16:46:52.447Z,99.90
2018-06-12T16:49:23.233Z,99.90
2018-06-12T16:51:53.484Z,99.90
2018-06-12T16:54:23.931Z,99.90
2018-06-12T16:56:54.750Z,99.90
2018-06-12T16:59:25.072Z,99.90
2018-06-12T17:01:55.581Z,99.90
2018-06-12T17:04:26.831Z,99.90
2018-06-12T17:06:57.381Z,99.90
2018-06-12T17:09:27.693Z,99.90
2018-06-12T17:11:57.561Z,99.90
2018-06-12T17:14:29.013Z,99.90
2018-06-12T17:16:59.291Z,99.90
2018-06-12T17:19:29.721Z,99.90
2018-06-12T17:24:29.481Z,99.90
2018-06-12T17:26:59.161Z,99.90
2018-06-12T17:29:28.884Z,99.90
2018-06-12T17:31:59.071Z,99.90
2018-06-12T17:34:29.391Z,99.90
2018-06-12T17:36:59.712Z,99.90
2018-06-12T17:39:29.381Z,99.90
2018-06-12T17:42:05.175Z,99.90
2018-06-12T17:44:37.006Z,99.90
2018-06-12T17:47:07.392Z,99.90
2018-06-12T17:49:37.711Z,99.90
2018-06-12T17:52:08.255Z,99.90
2018-06-12T17:54:38.711Z,99.90
2018-06-12T17:57:09.500Z,99.90
2018-06-12T17:59:39.969Z,99.90
2018-06-12T18:02:10.910Z,99.90
2018-06-12T18:04:42.139Z,99.90
2018-06-12T18:07:12.630Z,99.90
2018-06-12T18:09:42.972Z,99.90
2018-06-12T18:12:13.859Z,99.90
2018-06-12T18:14:44.900Z,99.90
2018-06-12T18:17:16.360Z,99.90
2018-06-12T18:19:53.560Z,99.90
2018-06-12T18:22:24.141Z,99.90
2018-06-12T18:24:54.449Z,99.90
2018-06-12T18:27:24.810Z,99.90
2018-06-12T18:29:57.872Z,99.90
2018-06-12T18:32:28.242Z,99.90
2018-06-12T18:34:58.798Z,99.90
2018-06-12T18:37:45.101Z,99.90
2018-06-12T18:40:19.950Z,99.90
2018-06-12T18:42:50.753Z,99.90
2018-06-12T18:45:20.999Z,99.90
2018-06-12T18:47:51.930Z,99.90
2018-06-12T18:50:22.380Z,99.90
2018-06-12T18:52:53.361Z,99.90
2018-06-12T18:55:26.591Z,99.90
2018-06-12T18:57:56.765Z,99.90
2018-06-12T19:00:27.021Z,99.70
2018-06-12T19:03:01.881Z,99.90
2018-06-12T19:05:32.142Z,99.90
2018-06-12T19:08:02.361Z,99.90
2018-06-12T19:13:11.171Z,99.60
2018-06-12T19:15:44.013Z,99.50
2018-06-12T19:18:15.671Z,99.80
2018-06-12T19:20:47.391Z,99.90
2018-06-12T19:23:17.651Z,99.90
2018-06-12T19:25:48.881Z,99.90
2018-06-12T19:28:24.173Z,99.90
2018-06-12T19:30:54.683Z,99.90
2018-06-12T19:33:25.220Z,99.90
2018-06-12T19:35:55.620Z,99.90
2018-06-12T19:38:25.951Z,99.90
2018-06-12T19:40:56.921Z,99.90
2018-06-12T19:43:27.220Z,99.80
2018-06-12T19:45:57.970Z,99.80
2018-06-12T19:48:28.901Z,99.90
2018-06-12T19:51:00.271Z,99.80
2018-06-12T19:53:31.411Z,99.70
2018-06-12T19:56:01.781Z,99.60
2018-06-12T19:58:32.106Z,99.40
2018-06-12T20:01:02.100Z,99.10
2018-06-12T20:06:03.321Z,99.10
2018-06-12T20:08:33.711Z,98.70
2018-06-12T20:11:04.541Z,98.80
2018-06-12T20:13:34.537Z,98.60
2018-06-12T20:16:05.061Z,98.80
2018-06-12T20:18:35.461Z,99.10
2018-06-12T20:21:06.611Z,99.30
2018-06-12T20:23:36.911Z,99.40
2018-06-12T20:26:06.913Z,99.40
2018-06-12T20:28:37.151Z,99.90
2018-06-12T20:31:07.491Z,99.90
2018-06-12T20:33:37.630Z,99.90
2018-06-12T20:36:07.960Z,99.90
2018-06-12T20:38:38.223Z,99.80
2018-06-12T20:41:08.593Z,99.50
2018-06-12T20:43:39.193Z,99.60
2018-06-12T20:46:09.420Z,99.70
2018-06-12T20:48:39.843Z,99.90
2018-06-12T20:51:10.360Z,99.90
2018-06-12T20:53:40.491Z,99.90
2018-06-12T20:56:10.855Z,99.50
2018-06-12T21:01:11.523Z,99.80
2018-06-12T21:06:12.401Z,99.90
2018-06-12T21:08:43.380Z,99.90
2018-06-12T21:11:13.771Z,99.90
2018-06-12T21:13:43.780Z,99.90
2018-06-12T21:16:13.917Z,99.90
2018-06-12T21:18:44.081Z,99.90
2018-06-12T21:21:14.850Z,99.90
2018-06-12T21:23:45.471Z,99.90
2018-06-12T21:26:15.634Z,99.90
2018-06-12T21:28:47.843Z,99.90
2018-06-12T21:31:18.160Z,99.90
2018-06-12T21:33:48.580Z,99.90
2018-06-12T21:36:18.842Z,99.90
2018-06-12T21:38:49.040Z,99.90
2018-06-12T21:41:19.370Z,99.90
2018-06-12T21:43:50.060Z,99.90
2018-06-12T21:46:20.167Z,99.90
2018-06-12T21:48:50.431Z,99.90
2018-06-12T21:51:20.719Z,99.90
2018-06-12T21:53:51.171Z,99.90
2018-06-12T21:58:50.751Z,99.90
2018-06-12T22:01:42.263Z,99.90
2018-06-12T22:04:12.700Z,99.90
2018-06-12T22:06:43.221Z,99.90
2018-06-12T22:09:14.141Z,99.90
2018-06-12T22:11:44.480Z,99.90
2018-06-12T22:14:15.044Z,99.90
2018-06-12T22:16:45.490Z,99.90
2018-06-12T22:19:16.400Z,99.90
2018-06-12T22:21:46.981Z,99.90
2018-06-12T22:24:17.471Z,99.90
2018-06-12T22:26:47.850Z,99.90
2018-06-12T22:29:18.240Z,99.90
2018-06-12T22:31:48.781Z,99.90
2018-06-12T22:34:19.561Z,99.90
2018-06-12T22:36:49.771Z,99.90
2018-06-12T22:39:20.811Z,99.90
2018-06-12T22:41:50.801Z,99.90
2018-06-12T22:44:21.533Z,99.90
2018-06-12T22:46:51.562Z,99.90
2018-06-12T22:49:22.001Z,99.90
2018-06-12T22:51:52.301Z,99.90
2018-06-12T22:54:23.121Z,99.90
2018-06-12T22:59:23.581Z,99.90
2018-06-12T23:01:53.781Z,99.90
2018-06-12T23:04:24.473Z,99.90
2018-06-12T23:06:54.610Z,99.90
2018-06-12T23:09:25.062Z,99.90
2018-06-12T23:11:55.835Z,99.90
2018-06-12T23:14:25.982Z,99.90
2018-06-12T23:16:56.158Z,99.90
2018-06-12T23:19:26.741Z,99.90
2018-06-12T23:22:01.284Z,99.90
2018-06-12T23:24:31.861Z,99.90
2018-06-12T23:27:02.626Z,99.90
2018-06-12T23:32:03.531Z,99.90
2018-06-12T23:34:33.711Z,99.90
2018-06-12T23:37:03.851Z,99.90
2018-06-12T23:39:34.242Z,99.90
2018-06-12T23:44:34.261Z,99.90
2018-06-12T23:47:04.392Z,99.90
2018-06-12T23:52:04.990Z,99.90
2018-06-12T23:54:35.320Z,99.90
2018-06-12T23:57:05.701Z,99.90
2018-06-12T23:59:36.104Z,99.90
